Time;durP1;ratioP1;P1;durP2;ratioP2;P2;SDS_P1;SDS_P2;PMS_P1;PMS_P2;Temp;Humidity;BMP_temperature;BMP_pressure;BME280_temperature;BME280_humidity;BME280_pressure;Samples;Min_cycle;Max_cycle;Signal;HPM_P1;HPM_P2
2023/04/26 00:02:18;;;;;;;0.63;0.63;;;9.40;99.90;;;;;;5072082;28;20223;-63
2023/04/26 00:04:46;;;;;;;0.73;0.73;;;9.40;99.90;;;;;;5073191;28;20282;-64
2023/04/26 00:07:14;;;;;;;0.90;0.90;;;9.30;99.90;;;;;;5072291;28;20260;-64
2023/04/26 00:09:43;;;;;;;0.80;0.80;;;9.30;99.90;;;;;;5076988;28;20211;-64
2023/04/26 00:12:10;;;;;;;0.83;0.83;;;9.20;99.90;;;;;;5071649;28;20223;-63
2023/04/26 00:14:38;;;;;;;0.90;0.90;;;9.10;99.90;;;;;;5072704;28;20218;-64
2023/04/26 00:17:05;;;;;;;0.87;0.87;;;9.00;99.90;;;;;;5073617;28;20207;-63
2023/04/26 00:19:32;;;;;;;0.90;0.90;;;9.00;99.90;;;;;;5071947;28;20210;-64
2023/04/26 00:22:00;;;;;;;1.20;1.00;;;8.90;99.90;;;;;;5071197;28;20277;-64
2023/04/26 00:24:27;;;;;;;0.75;0.75;;;8.80;99.90;;;;;;5074238;28;20259;-64
2023/04/26 00:26:54;;;;;;;0.80;0.80;;;8.80;99.90;;;;;;5077952;28;20270;-64
2023/04/26 00:29:21;;;;;;;0.70;0.70;;;8.80;99.90;;;;;;5070463;28;20207;-64
2023/04/26 00:31:48;;;;;;;0.60;0.60;;;8.70;99.90;;;;;;5070158;28;20230;-63
2023/04/26 00:34:15;;;;;;;1.10;1.00;;;8.70;99.90;;;;;;5070004;28;20590;-64
2023/04/26 00:36:42;;;;;;;0.90;0.90;;;8.70;99.90;;;;;;5070249;28;20234;-64
2023/04/26 00:39:10;;;;;;;0.80;0.80;;;8.70;99.90;;;;;;5069875;28;20217;-64
2023/04/26 00:41:37;;;;;;;0.67;0.67;;;8.70;99.90;;;;;;5071100;28;20230;-62
2023/04/26 00:44:05;;;;;;;0.67;0.67;;;8.70;99.90;;;;;;5074737;28;20207;-64
2023/04/26 00:46:32;;;;;;;0.60;0.60;;;8.70;99.90;;;;;;5070564;28;20749;-64
2023/04/26 00:48:59;;;;;;;0.70;0.70;;;8.60;99.90;;;;;;5075118;28;20207;-63
2023/04/26 00:51:26;;;;;;;0.50;0.50;;;8.60;99.90;;;;;;5076111;28;20705;-63
2023/04/26 00:53:54;;;;;;;1.23;0.83;;;8.60;99.90;;;;;;5074031;28;20195;-63
2023/04/26 00:56:25;;;;;;;0.73;0.73;;;8.60;99.90;;;;;;5074849;28;20217;-65
2023/04/26 00:58:52;;;;;;;0.60;0.60;;;8.60;99.90;;;;;;5075103;28;20207;-64
2023/04/26 01:01:20;;;;;;;0.70;0.60;;;8.60;99.90;;;;;;5073334;28;20227;-64
2023/04/26 01:03:47;;;;;;;0.80;0.80;;;8.50;99.90;;;;;;5069557;28;20204;-62
2023/04/26 01:06:14;;;;;;;0.70;0.70;;;8.50;99.90;;;;;;5074577;28;20209;-65
2023/04/26 01:08:41;;;;;;;0.80;0.80;;;8.40;99.90;;;;;;5074955;28;20286;-64
2023/04/26 01:11:08;;;;;;;0.80;0.80;;;8.40;99.90;;;;;;5074064;28;20642;-62
2023/04/26 01:13:37;;;;;;;0.90;0.90;;;8.30;99.90;;;;;;5075314;28;20203;-65
2023/04/26 01:16:07;;;;;;;0.80;0.80;;;8.30;99.90;;;;;;5077222;28;20234;-63
2023/04/26 01:18:34;;;;;;;0.90;0.90;;;8.40;99.90;;;;;;5079238;28;20227;-66
2023/04/26 01:21:03;;;;;;;0.87;0.87;;;8.30;99.90;;;;;;5077047;28;20234;-64
2023/04/26 01:23:32;;;;;;;0.80;0.80;;;8.30;99.90;;;;;;5075462;28;20203;-63
2023/04/26 01:25:58;;;;;;;0.87;0.87;;;8.30;99.90;;;;;;5073750;28;20615;-64
2023/04/26 01:28:25;;;;;;;0.95;0.95;;;8.20;99.90;;;;;;5075917;28;20238;-64
2023/04/26 01:30:52;;;;;;;1.00;1.00;;;8.20;99.90;;;;;;5072643;28;20724;-64
2023/04/26 01:33:19;;;;;;;1.00;1.00;;;8.20;99.90;;;;;;5075244;28;20207;-64
2023/04/26 01:35:46;;;;;;;0.80;0.80;;;8.20;99.90;;;;;;5074172;28;20295;-64
2023/04/26 01:38:13;;;;;;;0.87;0.87;;;8.20;99.90;;;;;;5073684;28;20203;-63
2023/04/26 01:40:44;;;;;;;0.80;0.80;;;8.30;99.90;;;;;;5072467;28;20223;-64
2023/04/26 01:43:11;;;;;;;0.80;0.80;;;8.40;99.90;;;;;;5074696;28;20222;-63
2023/04/26 01:45:38;;;;;;;1.30;1.20;;;8.50;99.90;;;;;;5072856;28;20889;-64
2023/04/26 01:48:06;;;;;;;1.10;1.10;;;8.60;99.90;;;;;;5072670;28;20207;-64
2023/04/26 01:50:32;;;;;;;1.20;1.00;;;8.50;99.90;;;;;;5072162;28;20230;-63
2023/04/26 01:52:59;;;;;;;1.00;1.00;;;8.50;99.90;;;;;;5073725;28;20207;-64
2023/04/26 01:55:26;;;;;;;1.30;1.30;;;8.40;99.90;;;;;;5073742;28;20710;-64
2023/04/26 01:57:54;;;;;;;1.20;1.20;;;8.40;99.90;;;;;;5074119;28;20286;-63
2023/04/26 02:00:21;;;;;;;1.40;1.30;;;8.30;99.90;;;;;;5073346;28;20207;-64
2023/04/26 02:02:48;;;;;;;1.70;1.60;;;8.20;99.90;;;;;;5073858;28;20218;-64
2023/04/26 02:05:15;;;;;;;1.10;1.10;;;8.20;99.90;;;;;;5074081;28;20273;-63
2023/04/26 02:07:41;;;;;;;0.85;0.85;;;8.20;99.90;;;;;;5074381;28;20544;-63
2023/04/26 02:10:09;;;;;;;1.03;1.03;;;8.30;99.90;;;;;;5072689;28;20214;-64
2023/04/26 02:12:36;;;;;;;1.00;1.00;;;8.30;99.90;;;;;;5073662;28;20203;-64
2023/04/26 02:15:05;;;;;;;0.93;0.93;;;8.40;99.90;;;;;;5074185;28;20219;-64
2023/04/26 02:17:32;;;;;;;0.87;0.87;;;8.40;99.90;;;;;;5073516;28;20254;-63
2023/04/26 02:19:59;;;;;;;0.90;0.90;;;8.40;99.90;;;;;;5072918;28;20207;-64
2023/04/26 02:22:26;;;;;;;0.90;0.90;;;8.40;99.90;;;;;;5074571;28;20219;-65
2023/04/26 02:24:53;;;;;;;0.93;0.93;;;8.40;99.90;;;;;;5075252;28;20286;-63
2023/04/26 02:27:20;;;;;;;0.90;0.90;;;8.30;99.90;;;;;;5075174;28;20210;-64
2023/04/26 02:29:46;;;;;;;1.00;1.00;;;8.40;99.90;;;;;;5074419;28;20207;-65
2023/04/26 02:32:15;;;;;;;1.20;1.20;;;8.40;99.90;;;;;;5076522;28;20318;-64
2023/04/26 02:34:41;;;;;;;0.90;0.90;;;8.40;99.90;;;;;;5074660;28;20298;-63
2023/04/26 02:37:08;;;;;;;1.00;1.00;;;8.40;99.90;;;;;;5074811;28;20211;-64
2023/04/26 02:39:35;;;;;;;1.00;1.00;;;8.50;99.90;;;;;;5073908;28;20641;-64
2023/04/26 02:42:02;;;;;;;0.90;0.90;;;8.40;99.90;;;;;;5074124;28;20238;-64
2023/04/26 02:44:30;;;;;;;1.20;1.20;;;8.30;99.90;;;;;;5073890;28;20639;-64
2023/04/26 02:46:57;;;;;;;1.20;1.20;;;8.30;99.90;;;;;;5074032;28;20293;-65
2023/04/26 02:49:25;;;;;;;1.07;1.07;;;8.30;99.90;;;;;;5073586;28;20203;-63
2023/04/26 02:51:52;;;;;;;1.00;1.00;;;8.40;99.90;;;;;;5075992;28;20247;-64
2023/04/26 02:54:19;;;;;;;1.10;1.10;;;8.40;99.90;;;;;;5075400;28;20199;-64
2023/04/26 02:56:46;;;;;;;1.00;1.00;;;8.50;99.90;;;;;;5073828;28;20704;-63
2023/04/26 02:59:12;;;;;;;1.00;1.00;;;8.50;99.90;;;;;;5073540;28;20298;-63
2023/04/26 03:01:39;;;;;;;1.20;1.20;;;8.60;99.90;;;;;;5075109;28;20318;-64
2023/04/26 03:04:07;;;;;;;1.20;1.20;;;8.60;99.90;;;;;;5077863;28;20225;-64
2023/04/26 03:06:36;;;;;;;1.30;1.20;;;8.60;99.90;;;;;;5075101;28;20689;-65
2023/04/26 03:09:04;;;;;;;1.00;1.00;;;8.60;99.90;;;;;;5071984;28;20260;-63
2023/04/26 03:11:31;;;;;;;1.10;1.10;;;8.70;99.90;;;;;;5072432;28;20318;-64
2023/04/26 03:13:58;;;;;;;1.30;1.20;;;8.70;99.90;;;;;;5072518;28;20670;-63
2023/04/26 03:16:27;;;;;;;0.90;0.90;;;8.60;99.90;;;;;;5072497;28;20223;-64
2023/04/26 03:18:54;;;;;;;0.90;0.90;;;8.60;99.90;;;;;;5072348;28;20569;-63
2023/04/26 03:21:21;;;;;;;0.80;0.80;;;8.60;99.90;;;;;;5071677;28;20258;-63
2023/04/26 03:23:49;;;;;;;0.80;0.80;;;8.60;99.90;;;;;;5071936;28;20211;-63
2023/04/26 03:26:16;;;;;;;0.80;0.80;;;8.60;99.90;;;;;;5073051;28;20289;-63
2023/04/26 03:28:43;;;;;;;1.00;1.00;;;8.60;99.90;;;;;;5072105;28;20211;-61
2023/04/26 03:31:10;;;;;;;0.93;0.93;;;8.60;99.90;;;;;;5071063;28;20219;-61
2023/04/26 03:33:37;;;;;;;0.83;0.83;;;8.60;99.90;;;;;;5072165;28;20304;-61
2023/04/26 03:36:05;;;;;;;0.87;0.87;;;8.60;99.90;;;;;;5072840;28;20227;-64
2023/04/26 03:38:32;;;;;;;1.00;0.97;;;8.50;99.90;;;;;;5074397;28;20299;-63
2023/04/26 03:41:00;;;;;;;0.90;0.90;;;8.50;99.90;;;;;;5069689;28;20315;-63
2023/04/26 03:43:27;;;;;;;0.80;0.80;;;8.50;99.90;;;;;;5074596;28;20207;-61
2023/04/26 03:45:53;;;;;;;0.80;0.80;;;8.50;99.90;;;;;;5077777;28;20195;-62
2023/04/26 03:48:20;;;;;;;0.93;0.93;;;8.50;99.90;;;;;;5072219;28;20199;-63
2023/04/26 03:50:47;;;;;;;0.70;0.70;;;8.50;99.90;;;;;;5071756;28;20218;-63
2023/04/26 03:53:14;;;;;;;0.83;0.83;;;8.60;99.90;;;;;;5072509;28;20851;-62
2023/04/26 03:55:42;;;;;;;0.73;0.73;;;8.60;99.90;;;;;;5072741;28;20589;-61
2023/04/26 03:58:10;;;;;;;0.80;0.80;;;8.70;99.90;;;;;;5073138;28;20309;-63
2023/04/26 04:00:37;;;;;;;0.93;0.93;;;8.70;99.90;;;;;;5071848;28;20229;-62
2023/04/26 04:03:04;;;;;;;0.90;0.90;;;8.60;99.90;;;;;;5071867;28;20266;-63
2023/04/26 04:05:31;;;;;;;0.90;0.90;;;8.60;99.90;;;;;;5072266;28;20205;-62
2023/04/26 04:07:58;;;;;;;0.97;0.97;;;8.60;99.90;;;;;;5072940;28;20207;-61
2023/04/26 04:10:25;;;;;;;0.70;0.70;;;8.50;99.90;;;;;;5071559;28;20213;-61
2023/04/26 04:12:52;;;;;;;0.80;0.80;;;8.50;99.90;;;;;;5072331;28;20310;-62
2023/04/26 04:15:21;;;;;;;0.90;0.90;;;8.40;99.90;;;;;;5072511;28;20339;-61
2023/04/26 04:17:48;;;;;;;1.10;1.07;;;8.40;99.90;;;;;;5072167;28;20199;-62
2023/04/26 04:20:14;;;;;;;0.90;0.90;;;8.40;99.90;;;;;;5071935;28;20206;-63
2023/04/26 04:22:41;;;;;;;0.97;0.97;;;8.40;99.90;;;;;;5072676;28;20207;-62
2023/04/26 04:25:09;;;;;;;0.80;0.80;;;8.40;99.90;;;;;;5072458;28;20230;-64
2023/04/26 04:27:37;;;;;;;0.90;0.90;;;8.30;99.90;;;;;;5072397;28;20214;-63
2023/04/26 04:30:06;;;;;;;0.90;0.90;;;8.30;99.90;;;;;;5071521;28;20658;-63
2023/04/26 04:32:34;;;;;;;0.90;0.90;;;8.20;99.90;;;;;;5071619;28;20230;-63
2023/04/26 04:35:01;;;;;;;1.00;1.00;;;8.20;99.90;;;;;;5072420;28;20206;-62
2023/04/26 04:37:28;;;;;;;0.90;0.90;;;8.20;99.90;;;;;;5072314;28;20229;-62
2023/04/26 04:39:55;;;;;;;0.73;0.73;;;8.10;99.90;;;;;;5071584;28;20229;-62
2023/04/26 04:42:22;;;;;;;0.90;0.90;;;8.10;99.90;;;;;;5072015;28;20267;-62
2023/04/26 04:44:50;;;;;;;1.00;1.00;;;8.10;99.90;;;;;;5072189;28;20239;-62
2023/04/26 04:47:17;;;;;;;0.90;0.90;;;8.10;99.90;;;;;;5073502;28;20773;-64
2023/04/26 04:49:46;;;;;;;1.00;1.00;;;8.00;99.90;;;;;;5077609;28;20211;-63
2023/04/26 04:52:13;;;;;;;0.87;0.87;;;8.00;99.90;;;;;;5079760;28;20242;-62
2023/04/26 04:54:39;;;;;;;0.80;0.80;;;8.00;99.90;;;;;;5084062;28;20203;-63
2023/04/26 04:57:06;;;;;;;0.90;0.90;;;8.00;99.90;;;;;;5086284;28;20219;-63
2023/04/26 04:59:33;;;;;;;1.00;1.00;;;8.00;99.90;;;;;;5087567;28;20249;-63
2023/04/26 05:02:00;;;;;;;1.00;1.00;;;8.00;99.90;;;;;;5089006;28;20294;-63
2023/04/26 05:04:27;;;;;;;0.90;0.90;;;8.00;99.90;;;;;;5087430;28;20199;-61
2023/04/26 05:06:55;;;;;;;0.90;0.90;;;8.00;99.90;;;;;;5086858;28;20272;-62
2023/04/26 05:09:22;;;;;;;0.97;0.97;;;8.10;99.90;;;;;;5076435;28;20689;-62
2023/04/26 05:11:49;;;;;;;0.93;0.93;;;8.10;99.90;;;;;;5076344;28;20223;-63
2023/04/26 05:14:15;;;;;;;0.90;0.90;;;8.10;99.90;;;;;;5073964;28;20303;-62
2023/04/26 05:16:42;;;;;;;1.00;1.00;;;8.10;99.90;;;;;;5073032;28;20309;-62
2023/04/26 05:19:09;;;;;;;0.90;0.90;;;8.10;99.90;;;;;;5075930;28;20242;-63
2023/04/26 05:21:36;;;;;;;1.00;1.00;;;8.10;99.90;;;;;;5069730;28;20245;-64
2023/04/26 05:24:04;;;;;;;0.97;0.97;;;8.20;99.90;;;;;;5072918;28;20204;-62
2023/04/26 05:26:31;;;;;;;0.90;0.90;;;8.10;99.90;;;;;;5054551;28;20210;-67
2023/04/26 05:28:58;;;;;;;1.20;1.10;;;8.20;99.90;;;;;;5055541;28;20207;-64
2023/04/26 05:31:25;;;;;;;1.10;1.10;;;8.20;99.90;;;;;;5064735;28;20219;-67
2023/04/26 05:33:52;;;;;;;1.00;1.00;;;8.20;99.90;;;;;;5057066;28;20294;-63
2023/04/26 05:36:19;;;;;;;1.20;1.20;;;8.20;99.90;;;;;;5056156;28;20216;-61
2023/04/26 05:38:45;;;;;;;1.20;1.20;;;8.20;99.90;;;;;;5066140;28;20211;-63
2023/04/26 05:41:14;;;;;;;1.33;1.23;;;8.20;99.90;;;;;;5069781;28;20219;-63
2023/04/26 05:43:41;;;;;;;1.10;1.10;;;8.20;99.90;;;;;;5061123;28;20302;-62
2023/04/26 05:46:08;;;;;;;0.93;0.93;;;8.30;99.90;;;;;;5073893;28;20654;-63
2023/04/26 05:48:34;;;;;;;1.00;1.00;;;8.30;99.90;;;;;;5062151;28;20227;-63
2023/04/26 05:51:02;;;;;;;1.10;1.10;;;8.30;99.90;;;;;;5082571;28;20248;-64
2023/04/26 05:53:28;;;;;;;1.30;1.20;;;8.40;99.90;;;;;;5078523;28;20290;-61
2023/04/26 05:55:55;;;;;;;1.27;1.17;;;8.40;99.90;;;;;;5077044;28;20223;-63
2023/04/26 05:58:23;;;;;;;1.40;1.30;;;8.40;99.90;;;;;;5076473;28;20272;-62
2023/04/26 06:00:50;;;;;;;1.10;1.10;;;8.50;99.90;;;;;;5088839;28;20227;-62
2023/04/26 06:03:18;;;;;;;1.10;1.10;;;8.60;99.90;;;;;;5080419;28;20211;-61
2023/04/26 06:05:45;;;;;;;1.50;1.20;;;8.60;99.90;;;;;;5079124;28;20215;-63
2023/04/26 06:08:12;;;;;;;1.30;1.30;;;8.80;99.90;;;;;;5087631;28;20226;-63
2023/04/26 06:10:38;;;;;;;1.50;1.40;;;8.90;99.90;;;;;;5087291;28;20223;-62
2023/04/26 06:13:05;;;;;;;1.20;1.20;;;8.90;99.90;;;;;;5088177;28;20406;-61
2023/04/26 06:15:34;;;;;;;1.13;1.13;;;9.00;99.90;;;;;;5088292;28;20203;-64
2023/04/26 06:18:01;;;;;;;1.03;1.03;;;9.00;99.90;;;;;;5090106;28;20227;-62
2023/04/26 06:20:27;;;;;;;1.10;1.10;;;9.10;99.90;;;;;;5083726;28;20654;-62
2023/04/26 06:22:54;;;;;;;1.00;1.00;;;9.10;99.90;;;;;;5083309;28;20290;-62
2023/04/26 06:25:21;;;;;;;1.00;1.00;;;9.20;99.90;;;;;;5075962;28;20218;-62
2023/04/26 06:27:48;;;;;;;0.97;0.97;;;9.30;99.90;;;;;;5073115;28;20195;-63
2023/04/26 06:30:15;;;;;;;1.30;1.20;;;9.40;99.90;;;;;;5072586;28;20730;-63
2023/04/26 06:32:43;;;;;;;1.30;1.30;;;9.50;99.90;;;;;;5073719;28;20207;-62
2023/04/26 06:35:10;;;;;;;2.93;1.00;;;9.50;99.90;;;;;;5074306;28;20203;-62
2023/04/26 06:37:38;;;;;;;1.00;1.00;;;9.60;99.90;;;;;;5073873;28;20644;-63
2023/04/26 06:40:06;;;;;;;1.00;1.00;;;9.60;99.90;;;;;;5071498;28;20208;-63
2023/04/26 06:42:32;;;;;;;1.20;1.20;;;9.70;99.90;;;;;;5073324;28;20280;-62
2023/04/26 06:44:59;;;;;;;1.10;1.10;;;9.70;99.90;;;;;;5074085;28;20207;-62
2023/04/26 06:47:26;;;;;;;1.30;1.30;;;9.60;99.90;;;;;;5073864;28;20198;-63
2023/04/26 06:49:55;;;;;;;1.80;1.70;;;9.50;99.90;;;;;;5073580;28;20210;-63
2023/04/26 06:52:22;;;;;;;1.73;1.63;;;9.60;99.90;;;;;;5073531;28;20725;-63
2023/04/26 06:54:49;;;;;;;1.60;1.50;;;9.80;99.90;;;;;;5073350;28;20211;-61
2023/04/26 06:57:15;;;;;;;1.10;1.10;;;9.90;99.90;;;;;;5071752;28;20482;-62
2023/04/26 06:59:42;;;;;;;1.10;1.10;;;10.00;99.90;;;;;;5073252;28;20208;-64
2023/04/26 07:02:09;;;;;;;1.43;1.10;;;10.00;99.90;;;;;;5071800;28;20706;-63
2023/04/26 07:04:36;;;;;;;1.80;1.70;;;10.00;99.90;;;;;;5073601;28;20207;-61
2023/04/26 07:07:04;;;;;;;1.93;1.83;;;10.00;99.90;;;;;;5073476;28;20203;-63
2023/04/26 07:09:31;;;;;;;1.70;1.60;;;9.90;99.90;;;;;;5072741;28;20203;-63
2023/04/26 07:11:58;;;;;;;1.90;1.80;;;10.10;99.90;;;;;;5073534;28;20253;-63
2023/04/26 07:14:25;;;;;;;2.30;2.20;;;10.20;99.90;;;;;;5073096;28;20684;-63
2023/04/26 07:16:52;;;;;;;2.10;2.00;;;10.40;99.90;;;;;;5074123;28;20223;-61
2023/04/26 07:19:19;;;;;;;2.00;1.90;;;10.20;99.90;;;;;;5074871;28;20207;-63
2023/04/26 07:21:45;;;;;;;1.63;1.53;;;10.50;99.90;;;;;;5076629;28;20233;-63
2023/04/26 07:24:13;;;;;;;1.90;1.80;;;10.50;99.90;;;;;;5081684;28;20290;-63
2023/04/26 07:26:41;;;;;;;1.30;1.30;;;10.50;99.90;;;;;;5076806;28;20289;-61
2023/04/26 07:29:07;;;;;;;1.30;1.30;;;10.50;99.90;;;;;;5073559;28;20276;-63
2023/04/26 07:31:35;;;;;;;1.60;1.50;;;10.60;99.90;;;;;;5074201;28;20229;-63
2023/04/26 07:34:02;;;;;;;1.60;1.50;;;10.80;99.90;;;;;;5073786;28;20212;-63
2023/04/26 07:36:30;;;;;;;1.40;1.40;;;10.80;99.90;;;;;;5073363;28;20219;-62
2023/04/26 07:38:57;;;;;;;1.50;1.40;;;10.70;99.90;;;;;;5075028;28;20678;-62
2023/04/26 07:41:25;;;;;;;1.30;1.30;;;10.80;99.90;;;;;;5073447;28;20227;-63
2023/04/26 07:43:52;;;;;;;1.40;1.40;;;11.00;99.90;;;;;;5074441;28;20207;-62
2023/04/26 07:46:19;;;;;;;1.60;1.50;;;10.90;99.90;;;;;;5075112;28;20292;-63
2023/04/26 07:48:46;;;;;;;1.47;1.37;;;11.00;99.90;;;;;;5078161;28;20246;-62
2023/04/26 07:51:13;;;;;;;1.77;1.67;;;11.10;99.90;;;;;;5076769;28;20229;-62
2023/04/26 07:53:41;;;;;;;1.60;1.50;;;11.00;99.90;;;;;;5076122;28;20207;-61
2023/04/26 07:56:09;;;;;;;1.60;1.50;;;11.00;99.90;;;;;;5074649;28;20210;-63
2023/04/26 07:58:38;;;;;;;1.67;1.57;;;10.80;99.90;;;;;;5076707;28;20211;-62
2023/04/26 08:01:05;;;;;;;1.67;1.57;;;10.90;99.90;;;;;;5074312;28;20226;-62
2023/04/26 08:03:32;;;;;;;1.73;1.63;;;10.90;99.90;;;;;;5079419;28;20203;-62
2023/04/26 08:06:00;;;;;;;2.20;2.10;;;11.20;99.90;;;;;;5081741;28;20209;-63
2023/04/26 08:08:27;;;;;;;1.90;1.80;;;11.40;99.90;;;;;;5081194;28;20229;-63
2023/04/26 08:10:55;;;;;;;2.27;1.63;;;11.40;99.90;;;;;;5081011;28;20227;-62
2023/04/26 08:13:22;;;;;;;2.10;1.90;;;11.30;99.90;;;;;;5079490;28;20272;-63
2023/04/26 08:15:50;;;;;;;1.87;1.77;;;11.20;99.90;;;;;;5080103;28;20294;-63
2023/04/26 08:18:16;;;;;;;1.80;1.70;;;11.40;99.90;;;;;;5075054;28;20227;-62
2023/04/26 08:20:43;;;;;;;1.83;1.73;;;11.50;99.90;;;;;;5073427;28;20723;-63
2023/04/26 08:23:10;;;;;;;1.87;1.77;;;11.70;99.90;;;;;;5074179;28;20214;-64
2023/04/26 08:25:37;;;;;;;1.70;1.60;;;11.70;99.90;;;;;;5073585;28;20647;-62
2023/04/26 08:28:04;;;;;;;1.80;1.70;;;11.80;99.90;;;;;;5074689;28;20199;-63
2023/04/26 08:30:31;;;;;;;1.80;1.70;;;11.90;99.90;;;;;;5074683;28;20219;-62
2023/04/26 08:33:00;;;;;;;1.70;1.60;;;11.60;99.90;;;;;;5075841;28;20214;-62
2023/04/26 08:35:27;;;;;;;1.90;1.80;;;11.60;99.90;;;;;;5074736;28;20297;-63
2023/04/26 08:37:53;;;;;;;1.50;1.40;;;11.90;99.90;;;;;;5072347;28;20226;-63
2023/04/26 08:40:24;;;;;;;1.80;1.70;;;12.00;99.90;;;;;;5071270;28;20605;-63
2023/04/26 08:42:52;;;;;;;1.30;1.30;;;12.10;99.90;;;;;;5071220;28;20264;-64
2023/04/26 08:45:20;;;;;;;1.63;1.40;;;11.90;99.90;;;;;;5071595;28;20218;-64
2023/04/26 08:47:49;;;;;;;1.80;1.70;;;11.80;99.90;;;;;;5071958;28;20199;-63
2023/04/26 08:50:20;;;;;;;1.60;1.50;;;11.80;99.90;;;;;;5071169;28;20214;-61
2023/04/26 08:52:50;;;;;;;1.80;1.70;;;11.90;99.90;;;;;;5071659;28;20929;-62
2023/04/26 08:55:17;;;;;;;1.80;1.70;;;11.90;99.90;;;;;;5072088;28;20573;-63
2023/04/26 08:57:46;;;;;;;1.80;1.70;;;11.90;99.90;;;;;;5070977;28;20223;-63
2023/04/26 09:00:14;;;;;;;1.70;1.60;;;11.80;99.90;;;;;;5071112;28;20209;-62
2023/04/26 09:02:42;;;;;;;1.70;1.60;;;11.90;99.90;;;;;;5072960;28;20235;-64
2023/04/26 09:05:10;;;;;;;1.67;1.57;;;12.00;99.90;;;;;;5080572;28;20218;-63
2023/04/26 09:07:42;;;;;;;1.63;1.53;;;12.00;99.90;;;;;;5078907;28;20827;-63
2023/04/26 09:10:11;;;;;;;1.83;1.70;;;12.20;99.90;;;;;;5081849;28;20211;-62
2023/04/26 09:12:38;;;;;;;1.57;1.47;;;12.20;99.90;;;;;;5088576;28;20662;-62
2023/04/26 09:15:07;;;;;;;1.70;1.60;;;12.20;99.90;;;;;;5082750;28;20211;-63
2023/04/26 09:17:36;;;;;;;1.90;1.80;;;12.10;99.90;;;;;;5083071;28;20223;-62
2023/04/26 09:20:18;;;;;;;1.60;1.50;;;12.00;99.90;;;;;;5079354;28;20556;-63
2023/04/26 09:22:47;;;;;;;1.80;1.70;;;12.20;99.90;;;;;;5074896;28;20257;-63
2023/04/26 09:25:16;;;;;;;1.70;1.60;;;12.20;99.90;;;;;;5075279;28;20207;-64
2023/04/26 09:27:44;;;;;;;1.33;1.30;;;12.20;99.90;;;;;;5077119;28;20199;-63
2023/04/26 09:30:14;;;;;;;1.50;1.40;;;12.40;99.90;;;;;;5075241;28;20203;-64
2023/04/26 09:32:50;;;;;;;1.57;1.50;;;12.40;99.90;;;;;;5074983;28;20213;-64
2023/04/26 09:35:29;;;;;;;1.40;1.40;;;12.50;99.90;;;;;;5075519;28;20199;-63
2023/04/26 09:37:59;;;;;;;1.50;1.40;;;12.40;99.90;;;;;;5075294;28;20233;-63
2023/04/26 09:40:28;;;;;;;1.30;1.30;;;12.50;99.90;;;;;;5075976;28;20257;-64
2023/04/26 09:43:03;;;;;;;1.40;1.40;;;12.50;99.90;;;;;;5075749;28;20221;-63
2023/04/26 09:45:31;;;;;;;1.70;1.60;;;12.60;99.90;;;;;;5076658;28;20202;-62
2023/04/26 09:48:15;;;;;;;1.50;1.40;;;12.90;99.90;;;;;;5076609;28;20257;-63
2023/04/26 09:50:43;;;;;;;1.43;1.33;;;13.30;99.90;;;;;;5077102;28;20286;-62
2023/04/26 09:53:11;;;;;;;1.80;1.70;;;13.20;99.90;;;;;;5076545;28;20686;-63
2023/04/26 09:55:38;;;;;;;1.50;1.40;;;13.20;99.90;;;;;;5076265;28;20207;-62
2023/04/26 09:58:11;;;;;;;1.50;1.40;;;13.30;99.90;;;;;;5076401;28;20223;-64
2023/04/26 10:00:39;;;;;;;1.20;1.20;;;13.60;99.90;;;;;;5074556;28;20230;-64
2023/04/26 10:03:08;;;;;;;1.30;1.30;;;13.90;99.90;;;;;;5076321;28;20569;-63
2023/04/26 10:05:36;;;;;;;1.20;1.20;;;14.40;99.90;;;;;;5075744;28;20625;-64
2023/04/26 10:08:03;;;;;;;1.43;1.33;;;14.40;99.90;;;;;;5075859;28;20222;-64
2023/04/26 10:10:32;;;;;;;1.35;1.35;;;14.20;99.90;;;;;;5074185;28;20662;-64
2023/04/26 10:12:59;;;;;;;1.30;1.30;;;14.30;99.90;;;;;;5075930;28;20207;-63
2023/04/26 10:15:27;;;;;;;1.30;1.23;;;14.60;99.90;;;;;;5074861;28;20209;-63
2023/04/26 10:17:54;;;;;;;1.10;1.10;;;15.20;99.90;;;;;;5075857;28;20715;-64
2023/04/26 10:20:21;;;;;;;1.35;1.25;;;15.70;99.90;;;;;;5074033;28;20229;-63
2023/04/26 10:22:53;;;;;;;1.20;1.20;;;15.70;99.90;;;;;;5073453;28;20217;-63
2023/04/26 10:25:20;;;;;;;0.93;0.93;;;15.70;99.90;;;;;;5077951;28;20230;-63
2023/04/26 10:27:52;;;;;;;1.10;1.10;;;15.90;99.90;;;;;;5080025;28;20574;-64
2023/04/26 10:30:25;;;;;;;1.10;1.10;;;15.80;99.90;;;;;;5079964;28;20214;-64
2023/04/26 10:33:19;;;;;;;1.40;1.30;;;15.80;99.90;;;;;;5080827;28;20211;-64
2023/04/26 10:36:07;;;;;;;1.10;1.10;;;15.90;99.90;;;;;;5074998;28;20329;-64
2023/04/26 10:38:35;;;;;;;0.90;0.90;;;15.70;99.90;;;;;;5074523;28;20257;-64
2023/04/26 10:41:31;;;;;;;1.00;1.00;;;15.60;99.90;;;;;;5073606;28;20245;-64
2023/04/26 10:44:01;;;;;;;1.20;1.00;;;15.60;99.90;;;;;;5073256;28;20207;-62
2023/04/26 10:46:36;;;;;;;1.07;1.07;;;15.60;99.90;;;;;;5073387;28;20217;-64
2023/04/26 10:49:14;;;;;;;1.20;1.20;;;15.80;99.90;;;;;;5072979;28;20209;-64
2023/04/26 10:51:41;;;;;;;0.90;0.90;;;16.10;99.90;;;;;;5072598;28;20238;-64
2023/04/26 10:54:08;;;;;;;0.80;0.80;;;16.10;99.90;;;;;;5072891;28;20210;-64
2023/04/26 10:56:51;;;;;;;0.90;0.90;;;16.20;99.90;;;;;;5073116;28;20213;-64
2023/04/26 10:59:22;;;;;;;0.90;0.90;;;16.30;99.90;;;;;;5072737;28;20234;-62
2023/04/26 11:01:49;;;;;;;1.10;1.10;;;16.30;99.90;;;;;;5073230;28;20710;-63
2023/04/26 11:04:16;;;;;;;1.00;1.00;;;16.40;99.90;;;;;;5073162;28;20218;-63
2023/04/26 11:06:49;;;;;;;1.03;1.03;;;16.40;99.90;;;;;;5073541;28;20207;-64
2023/04/26 11:09:36;;;;;;;1.30;1.20;;;16.40;99.90;;;;;;5071844;28;20207;-64
2023/04/26 11:12:04;;;;;;;1.27;1.20;;;16.50;99.90;;;;;;5072786;28;20226;-63
2023/04/26 11:14:33;;;;;;;0.77;0.77;;;16.00;99.90;;;;;;5072321;28;20228;-63
2023/04/26 11:17:03;;;;;;;1.10;1.10;;;15.90;99.90;;;;;;5071058;28;20304;-63
2023/04/26 11:19:30;;;;;;;1.17;1.07;;;16.00;99.90;;;;;;5070319;28;20234;-64
2023/04/26 11:21:57;;;;;;;1.10;1.10;;;16.10;99.90;;;;;;5072177;28;20226;-64
2023/04/26 11:24:27;;;;;;;1.00;1.00;;;16.00;99.90;;;;;;5071594;28;20207;-62
2023/04/26 11:26:54;;;;;;;0.90;0.90;;;15.90;99.90;;;;;;5072025;28;20204;-63
2023/04/26 11:29:21;;;;;;;1.10;1.10;;;15.60;99.90;;;;;;5071248;28;20286;-63
2023/04/26 11:31:54;;;;;;;1.20;1.10;;;15.50;99.90;;;;;;5070869;28;20219;-64
2023/04/26 11:34:23;;;;;;;0.90;0.90;;;15.70;99.90;;;;;;5071001;28;20218;-63
2023/04/26 11:36:51;;;;;;;0.80;0.80;;;15.70;99.90;;;;;;5071661;28;20582;-62
2023/04/26 11:39:21;;;;;;;0.90;0.90;;;15.60;99.90;;;;;;5071044;28;20227;-63
2023/04/26 11:41:48;;;;;;;0.97;0.97;;;15.80;99.90;;;;;;5073835;28;20353;-63
2023/04/26 11:44:19;;;;;;;1.07;1.00;;;15.80;99.90;;;;;;5081040;28;20207;-62
2023/04/26 11:46:47;;;;;;;0.97;0.97;;;15.70;99.90;;;;;;5083013;28;20206;-63
2023/04/26 11:49:16;;;;;;;0.90;0.90;;;15.50;99.90;;;;;;5082349;28;20621;-62
2023/04/26 11:51:44;;;;;;;1.00;1.00;;;15.50;99.90;;;;;;5081275;28;20227;-64
2023/04/26 11:54:11;;;;;;;0.93;0.93;;;15.60;99.90;;;;;;5075644;28;20211;-62
2023/04/26 11:56:39;;;;;;;1.00;1.00;;;15.60;99.90;;;;;;5073207;28;20592;-65
2023/04/26 11:59:06;;;;;;;1.40;1.30;;;15.60;99.90;;;;;;5071948;28;20230;-63
2023/04/26 12:01:33;;;;;;;1.10;1.10;;;15.60;99.90;;;;;;5071956;28;20255;-65
2023/04/26 12:04:00;;;;;;;1.00;1.00;;;15.70;99.90;;;;;;5073184;28;20207;-65
2023/04/26 12:06:32;;;;;;;1.17;1.00;;;15.50;99.90;;;;;;5072614;28;20296;-64
2023/04/26 12:09:01;;;;;;;1.03;1.03;;;15.30;99.90;;;;;;5072261;28;20196;-62
2023/04/26 12:11:28;;;;;;;0.80;0.80;;;15.60;99.90;;;;;;5071461;28;20223;-64
2023/04/26 12:13:58;;;;;;;1.10;1.00;;;15.90;99.90;;;;;;5072023;28;20207;-63
2023/04/26 12:16:25;;;;;;;0.90;0.90;;;16.00;99.90;;;;;;5072174;28;20650;-63
2023/04/26 12:18:54;;;;;;;0.90;0.87;;;16.20;99.90;;;;;;5072811;28;20612;-63
2023/04/26 12:21:21;;;;;;;0.80;0.80;;;16.20;99.90;;;;;;5071549;28;20646;-62
2023/04/26 12:23:49;;;;;;;0.70;0.70;;;16.10;99.90;;;;;;5072454;28;20206;-63
2023/04/26 12:26:16;;;;;;;0.85;0.85;;;16.10;99.90;;;;;;5072419;28;20207;-64
2023/04/26 12:28:44;;;;;;;0.80;0.80;;;16.30;99.90;;;;;;5072692;28;20213;-64
2023/04/26 12:31:12;;;;;;;1.00;1.00;;;16.40;99.90;;;;;;5071320;28;20227;-63
2023/04/26 12:33:38;;;;;;;1.13;1.03;;;16.50;99.90;;;;;;5071893;28;20284;-64
2023/04/26 12:36:10;;;;;;;0.90;0.90;;;16.40;99.90;;;;;;5072175;28;20209;-64
2023/04/26 12:38:37;;;;;;;0.80;0.80;;;16.50;99.90;;;;;;5062390;28;20227;-64
2023/04/26 12:41:05;;;;;;;0.87;0.87;;;16.70;99.90;;;;;;5076796;28;20310;-62
2023/04/26 12:43:32;;;;;;;1.10;1.10;;;16.70;99.90;;;;;;5067568;28;20219;-62
2023/04/26 12:46:00;;;;;;;0.90;0.90;;;16.30;99.90;;;;;;5055808;28;20218;-62
2023/04/26 12:48:27;;;;;;;1.00;1.00;;;16.00;99.90;;;;;;5058909;28;20200;-64
2023/04/26 12:50:54;;;;;;;0.90;0.90;;;16.30;99.90;;;;;;5052674;28;20342;-62
2023/04/26 12:53:21;;;;;;;0.80;0.80;;;16.40;99.90;;;;;;5052764;28;20207;-63
2023/04/26 12:55:47;;;;;;;0.80;0.80;;;16.50;99.90;;;;;;5064731;28;20547;-64
2023/04/26 12:58:15;;;;;;;1.00;0.90;;;16.40;99.90;;;;;;5073675;28;20223;-63